sensor_id;sensor_type;location;lat;lon;timestamp;P1;durP1;ratioP1;P2;durP2;ratioP2
30062;SDS011;16889;67.864;24.990;2022-10-16T00:02:56;15.18;;;9.07;;
30062;SDS011;16889;67.864;24.990;2022-10-16T00:07:42;13.27;;;7.82;;
30062;SDS011;16889;67.864;24.990;2022-10-16T00:12:28;15.23;;;7.50;;
30062;SDS011;16889;67.864;24.990;2022-10-16T00:17:14;11.80;;;6.80;;
30062;SDS011;16889;67.864;24.990;2022-10-16T00:22:00;9.10;;;5.82;;
30062;SDS011;16889;67.864;24.990;2022-10-16T00:26:46;10.65;;;5.57;;
30062;SDS011;16889;67.864;24.990;2022-10-16T00:31:36;10.50;;;4.88;;
30062;SDS011;16889;67.864;24.990;2022-10-16T00:36:22;7.80;;;4.38;;
30062;SDS011;16889;67.864;24.990;2022-10-16T00:41:11;5.75;;;3.70;;
30062;SDS011;16889;67.864;24.990;2022-10-16T00:46:00;4.85;;;3.45;;
30062;SDS011;16889;67.864;24.990;2022-10-16T00:50:47;4.90;;;3.38;;
30062;SDS011;16889;67.864;24.990;2022-10-16T00:55:33;9.55;;;2.90;;
30062;SDS011;16889;67.864;24.990;2022-10-16T01:00:22;3.72;;;2.92;;
30062;SDS011;16889;67.864;24.990;2022-10-16T01:05:10;7.00;;;3.47;;
30062;SDS011;16889;67.864;24.990;2022-10-16T01:10:00;8.73;;;4.35;;
30062;SDS011;16889;67.864;24.990;2022-10-16T01:15:02;7.90;;;4.72;;
30062;SDS011;16889;67.864;24.990;2022-10-16T01:24:59;8.80;;;5.85;;
30062;SDS011;16889;67.864;24.990;2022-10-16T01:29:56;11.57;;;6.43;;
30062;SDS011;16889;67.864;24.990;2022-10-16T01:35:02;13.63;;;7.15;;
30062;SDS011;16889;67.864;24.990;2022-10-16T01:39:58;12.50;;;7.47;;
30062;SDS011;16889;67.864;24.990;2022-10-16T01:44:48;18.80;;;8.63;;
30062;SDS011;16889;67.864;24.990;2022-10-16T01:49:39;14.30;;;8.43;;
30062;SDS011;16889;67.864;24.990;2022-10-16T01:54:28;19.70;;;9.23;;
30062;SDS011;16889;67.864;24.990;2022-10-16T01:59:20;19.35;;;10.02;;
30062;SDS011;16889;67.864;24.990;2022-10-16T02:04:19;26.20;;;12.35;;
30062;SDS011;16889;67.864;24.990;2022-10-16T02:09:11;22.58;;;12.05;;
30062;SDS011;16889;67.864;24.990;2022-10-16T02:13:59;22.00;;;10.75;;
30062;SDS011;16889;67.864;24.990;2022-10-16T02:18:49;20.88;;;11.07;;
30062;SDS011;16889;67.864;24.990;2022-10-16T02:23:49;20.55;;;11.55;;
30062;SDS011;16889;67.864;24.990;2022-10-16T02:28:46;25.00;;;11.43;;
30062;SDS011;16889;67.864;24.990;2022-10-16T02:33:40;23.60;;;12.07;;
30062;SDS011;16889;67.864;24.990;2022-10-16T02:38:31;23.00;;;12.13;;
30062;SDS011;16889;67.864;24.990;2022-10-16T02:43:21;19.70;;;10.80;;
30062;SDS011;16889;67.864;24.990;2022-10-16T02:48:07;22.08;;;10.27;;
30062;SDS011;16889;67.864;24.990;2022-10-16T02:52:53;17.35;;;9.23;;
30062;SDS011;16889;67.864;24.990;2022-10-16T02:57:41;18.27;;;9.48;;
30062;SDS011;16889;67.864;24.990;2022-10-16T03:02:29;13.32;;;8.70;;
30062;SDS011;16889;67.864;24.990;2022-10-16T03:07:15;13.00;;;8.40;;
30062;SDS011;16889;67.864;24.990;2022-10-16T03:12:02;13.45;;;8.10;;
30062;SDS011;16889;67.864;24.990;2022-10-16T03:16:48;12.10;;;7.60;;
30062;SDS011;16889;67.864;24.990;2022-10-16T03:21:34;16.65;;;8.88;;
30062;SDS011;16889;67.864;24.990;2022-10-16T03:26:23;14.57;;;8.15;;
30062;SDS011;16889;67.864;24.990;2022-10-16T03:31:09;16.05;;;8.55;;
30062;SDS011;16889;67.864;24.990;2022-10-16T03:35:55;17.15;;;8.85;;
30062;SDS011;16889;67.864;24.990;2022-10-16T03:40:41;16.02;;;10.07;;
30062;SDS011;16889;67.864;24.990;2022-10-16T03:45:27;18.05;;;9.60;;
30062;SDS011;16889;67.864;24.990;2022-10-16T03:50:13;16.63;;;8.65;;
30062;SDS011;16889;67.864;24.990;2022-10-16T03:54:59;13.95;;;8.23;;
30062;SDS011;16889;67.864;24.990;2022-10-16T03:59:45;22.88;;;9.57;;
30062;SDS011;16889;67.864;24.990;2022-10-16T04:04:31;16.75;;;8.52;;
30062;SDS011;16889;67.864;24.990;2022-10-16T04:09:17;13.40;;;8.73;;
30062;SDS011;16889;67.864;24.990;2022-10-16T04:14:06;11.82;;;7.45;;
30062;SDS011;16889;67.864;24.990;2022-10-16T04:18:52;11.50;;;7.07;;
30062;SDS011;16889;67.864;24.990;2022-10-16T04:23:38;13.50;;;7.07;;
30062;SDS011;16889;67.864;24.990;2022-10-16T04:28:24;11.02;;;6.95;;
30062;SDS011;16889;67.864;24.990;2022-10-16T04:33:10;13.38;;;6.45;;
30062;SDS011;16889;67.864;24.990;2022-10-16T04:37:58;9.85;;;6.43;;
30062;SDS011;16889;67.864;24.990;2022-10-16T04:42:45;13.23;;;6.20;;
30062;SDS011;16889;67.864;24.990;2022-10-16T04:47:31;10.32;;;6.20;;
30062;SDS011;16889;67.864;24.990;2022-10-16T04:52:17;10.68;;;6.07;;
30062;SDS011;16889;67.864;24.990;2022-10-16T04:57:04;9.93;;;6.13;;
30062;SDS011;16889;67.864;24.990;2022-10-16T05:01:50;12.07;;;5.72;;
30062;SDS011;16889;67.864;24.990;2022-10-16T05:06:36;9.45;;;5.32;;
30062;SDS011;16889;67.864;24.990;2022-10-16T05:11:23;10.53;;;5.40;;
30062;SDS011;16889;67.864;24.990;2022-10-16T05:16:09;13.88;;;5.53;;
30062;SDS011;16889;67.864;24.990;2022-10-16T05:20:55;10.90;;;5.00;;
30062;SDS011;16889;67.864;24.990;2022-10-16T05:25:42;7.93;;;4.18;;
30062;SDS011;16889;67.864;24.990;2022-10-16T05:30:28;8.13;;;5.18;;
30062;SDS011;16889;67.864;24.990;2022-10-16T05:35:14;10.07;;;4.88;;
30062;SDS011;16889;67.864;24.990;2022-10-16T05:40:00;10.40;;;5.22;;
30062;SDS011;16889;67.864;24.990;2022-10-16T05:44:47;8.95;;;4.68;;
30062;SDS011;16889;67.864;24.990;2022-10-16T05:49:33;9.82;;;5.43;;
30062;SDS011;16889;67.864;24.990;2022-10-16T05:54:19;9.13;;;4.40;;
30062;SDS011;16889;67.864;24.990;2022-10-16T05:59:05;9.00;;;5.00;;
30062;SDS011;16889;67.864;24.990;2022-10-16T06:03:52;8.18;;;4.13;;
30062;SDS011;16889;67.864;24.990;2022-10-16T06:08:38;9.25;;;4.65;;
30062;SDS011;16889;67.864;24.990;2022-10-16T06:13:25;9.97;;;4.30;;
30062;SDS011;16889;67.864;24.990;2022-10-16T06:18:11;10.25;;;4.22;;
30062;SDS011;16889;67.864;24.990;2022-10-16T06:22:57;5.18;;;3.58;;
30062;SDS011;16889;67.864;24.990;2022-10-16T06:27:43;6.63;;;3.63;;
30062;SDS011;16889;67.864;24.990;2022-10-16T06:32:29;5.97;;;3.47;;
30062;SDS011;16889;67.864;24.990;2022-10-16T06:37:15;4.75;;;2.60;;
30062;SDS011;16889;67.864;24.990;2022-10-16T06:42:01;4.82;;;3.25;;
30062;SDS011;16889;67.864;24.990;2022-10-16T06:46:47;7.70;;;3.55;;
30062;SDS011;16889;67.864;24.990;2022-10-16T06:51:33;4.03;;;3.13;;
30062;SDS011;16889;67.864;24.990;2022-10-16T07:01:08;6.65;;;2.90;;
30062;SDS011;16889;67.864;24.990;2022-10-16T07:05:55;6.35;;;3.30;;
30062;SDS011;16889;67.864;24.990;2022-10-16T07:10:41;6.35;;;3.15;;
30062;SDS011;16889;67.864;24.990;2022-10-16T07:15:27;7.13;;;2.90;;
30062;SDS011;16889;67.864;24.990;2022-10-16T07:20:13;6.38;;;3.05;;
30062;SDS011;16889;67.864;24.990;2022-10-16T07:24:59;4.47;;;2.63;;
30062;SDS011;16889;67.864;24.990;2022-10-16T07:29:45;5.57;;;2.67;;
30062;SDS011;16889;67.864;24.990;2022-10-16T07:34:31;5.10;;;3.10;;
30062;SDS011;16889;67.864;24.990;2022-10-16T07:39:17;7.32;;;2.80;;
30062;SDS011;16889;67.864;24.990;2022-10-16T07:44:03;5.65;;;2.88;;
30062;SDS011;16889;67.864;24.990;2022-10-16T07:48:49;4.85;;;2.70;;
30062;SDS011;16889;67.864;24.990;2022-10-16T07:53:35;4.07;;;2.95;;
30062;SDS011;16889;67.864;24.990;2022-10-16T07:58:21;7.15;;;2.85;;
30062;SDS011;16889;67.864;24.990;2022-10-16T08:03:08;6.43;;;2.78;;
30062;SDS011;16889;67.864;24.990;2022-10-16T08:07:54;3.78;;;2.70;;
30062;SDS011;16889;67.864;24.990;2022-10-16T08:12:40;6.43;;;2.65;;
30062;SDS011;16889;67.864;24.990;2022-10-16T08:17:26;5.85;;;2.63;;
30062;SDS011;16889;67.864;24.990;2022-10-16T08:22:12;4.60;;;2.30;;
30062;SDS011;16889;67.864;24.990;2022-10-16T08:26:58;5.75;;;2.10;;
30062;SDS011;16889;67.864;24.990;2022-10-16T08:31:44;3.85;;;2.10;;
30062;SDS011;16889;67.864;24.990;2022-10-16T08:36:30;3.22;;;1.83;;
30062;SDS011;16889;67.864;24.990;2022-10-16T08:41:35;2.22;;;1.30;;
30062;SDS011;16889;67.864;24.990;2022-10-16T08:51:46;2.20;;;1.52;;
30062;SDS011;16889;67.864;24.990;2022-10-16T08:56:34;2.28;;;1.30;;
30062;SDS011;16889;67.864;24.990;2022-10-16T09:01:21;1.63;;;1.20;;
30062;SDS011;16889;67.864;24.990;2022-10-16T09:21:19;1.23;;;1.02;;
30062;SDS011;16889;67.864;24.990;2022-10-16T09:26:10;2.08;;;1.10;;
30062;SDS011;16889;67.864;24.990;2022-10-16T09:30:58;1.30;;;1.00;;
30062;SDS011;16889;67.864;24.990;2022-10-16T09:35:48;1.08;;;0.77;;
30062;SDS011;16889;67.864;24.990;2022-10-16T09:40:36;3.90;;;1.08;;
30062;SDS011;16889;67.864;24.990;2022-10-16T09:45:24;1.17;;;0.90;;
30062;SDS011;16889;67.864;24.990;2022-10-16T09:50:20;2.47;;;0.73;;
30062;SDS011;16889;67.864;24.990;2022-10-16T09:55:12;2.35;;;0.80;;
30062;SDS011;16889;67.864;24.990;2022-10-16T10:00:04;1.33;;;0.88;;
30062;SDS011;16889;67.864;24.990;2022-10-16T10:04:53;5.05;;;0.88;;
30062;SDS011;16889;67.864;24.990;2022-10-16T10:09:42;1.17;;;0.80;;
30062;SDS011;16889;67.864;24.990;2022-10-16T10:14:32;5.28;;;0.93;;
30062;SDS011;16889;67.864;24.990;2022-10-16T10:19:23;1.05;;;0.80;;
30062;SDS011;16889;67.864;24.990;2022-10-16T10:24:18;1.00;;;0.90;;
30062;SDS011;16889;67.864;24.990;2022-10-16T10:29:14;5.65;;;1.20;;
30062;SDS011;16889;67.864;24.990;2022-10-16T10:39:38;2.70;;;1.30;;
30062;SDS011;16889;67.864;24.990;2022-10-16T10:54:55;1.48;;;1.10;;
30062;SDS011;16889;67.864;24.990;2022-10-16T11:00:12;3.22;;;0.95;;
30062;SDS011;16889;67.864;24.990;2022-10-16T11:05:24;1.15;;;0.80;;
30062;SDS011;16889;67.864;24.990;2022-10-16T11:10:23;1.98;;;1.20;;
30062;SDS011;16889;67.864;24.990;2022-10-16T11:15:18;1.50;;;1.00;;
30062;SDS011;16889;67.864;24.990;2022-10-16T11:20:21;3.58;;;0.95;;
30062;SDS011;16889;67.864;24.990;2022-10-16T11:25:26;1.17;;;0.90;;
30062;SDS011;16889;67.864;24.990;2022-10-16T11:30:27;3.80;;;0.88;;
30062;SDS011;16889;67.864;24.990;2022-10-16T11:40:11;1.45;;;0.90;;
30062;SDS011;16889;67.864;24.990;2022-10-16T11:45:24;1.70;;;0.90;;
30062;SDS011;16889;67.864;24.990;2022-10-16T11:55:41;3.90;;;0.98;;
30062;SDS011;16889;67.864;24.990;2022-10-16T12:00:35;2.95;;;1.27;;
30062;SDS011;16889;67.864;24.990;2022-10-16T12:10:38;7.30;;;1.23;;
30062;SDS011;16889;67.864;24.990;2022-10-16T12:15:27;5.13;;;1.52;;
30062;SDS011;16889;67.864;24.990;2022-10-16T12:20:20;2.30;;;1.10;;
30062;SDS011;16889;67.864;24.990;2022-10-16T12:25:30;1.27;;;1.00;;
30062;SDS011;16889;67.864;24.990;2022-10-16T12:30:20;2.00;;;1.20;;
30062;SDS011;16889;67.864;24.990;2022-10-16T12:35:20;3.60;;;1.27;;
30062;SDS011;16889;67.864;24.990;2022-10-16T12:40:12;0.85;;;0.80;;
30062;SDS011;16889;67.864;24.990;2022-10-16T12:45:01;1.30;;;0.95;;
30062;SDS011;16889;67.864;24.990;2022-10-16T12:55:21;1.45;;;0.93;;
30062;SDS011;16889;67.864;24.990;2022-10-16T13:05:21;4.43;;;1.10;;
30062;SDS011;16889;67.864;24.990;2022-10-16T13:21:12;3.00;;;1.00;;
30062;SDS011;16889;67.864;24.990;2022-10-16T13:26:16;1.00;;;0.80;;
30062;SDS011;16889;67.864;24.990;2022-10-16T13:31:17;5.07;;;1.05;;
30062;SDS011;16889;67.864;24.990;2022-10-16T13:36:05;3.15;;;0.90;;
30062;SDS011;16889;67.864;24.990;2022-10-16T13:40:53;3.95;;;1.10;;
30062;SDS011;16889;67.864;24.990;2022-10-16T13:45:57;1.42;;;0.90;;
30062;SDS011;16889;67.864;24.990;2022-10-16T13:51:25;0.77;;;0.70;;
30062;SDS011;16889;67.864;24.990;2022-10-16T13:56:05;1.60;;;0.75;;
30062;SDS011;16889;67.864;24.990;2022-10-16T14:00:53;0.70;;;0.65;;
30062;SDS011;16889;67.864;24.990;2022-10-16T14:05:47;1.58;;;0.90;;
30062;SDS011;16889;67.864;24.990;2022-10-16T14:10:34;2.78;;;0.73;;
30062;SDS011;16889;67.864;24.990;2022-10-16T14:15:20;0.65;;;0.65;;
30062;SDS011;16889;67.864;24.990;2022-10-16T14:20:06;1.25;;;0.70;;
30062;SDS011;16889;67.864;24.990;2022-10-16T14:25:01;1.55;;;0.77;;
30062;SDS011;16889;67.864;24.990;2022-10-16T14:35:02;4.80;;;0.75;;
30062;SDS011;16889;67.864;24.990;2022-10-16T14:39:51;0.90;;;0.70;;
30062;SDS011;16889;67.864;24.990;2022-10-16T14:44:39;1.13;;;0.60;;
30062;SDS011;16889;67.864;24.990;2022-10-16T14:54:16;1.10;;;0.70;;
30062;SDS011;16889;67.864;24.990;2022-10-16T14:59:04;1.83;;;0.85;;
30062;SDS011;16889;67.864;24.990;2022-10-16T15:03:50;0.85;;;0.73;;
30062;SDS011;16889;67.864;24.990;2022-10-16T15:08:37;2.80;;;0.77;;
30062;SDS011;16889;67.864;24.990;2022-10-16T15:13:24;0.70;;;0.60;;
30062;SDS011;16889;67.864;24.990;2022-10-16T15:18:10;1.67;;;0.60;;
30062;SDS011;16889;67.864;24.990;2022-10-16T15:22:57;4.00;;;0.80;;
30062;SDS011;16889;67.864;24.990;2022-10-16T15:27:43;1.58;;;1.20;;
30062;SDS011;16889;67.864;24.990;2022-10-16T15:32:29;7.32;;;1.50;;
30062;SDS011;16889;67.864;24.990;2022-10-16T15:37:15;2.00;;;1.23;;
30062;SDS011;16889;67.864;24.990;2022-10-16T15:42:00;3.00;;;1.10;;
30062;SDS011;16889;67.864;24.990;2022-10-16T15:46:46;2.05;;;1.05;;
30062;SDS011;16889;67.864;24.990;2022-10-16T15:51:32;5.93;;;1.20;;
30062;SDS011;16889;67.864;24.990;2022-10-16T15:56:19;2.38;;;1.10;;
30062;SDS011;16889;67.864;24.990;2022-10-16T16:01:05;3.15;;;1.20;;
30062;SDS011;16889;67.864;24.990;2022-10-16T16:05:51;1.92;;;1.20;;
30062;SDS011;16889;67.864;24.990;2022-10-16T16:10:37;2.95;;;1.20;;
30062;SDS011;16889;67.864;24.990;2022-10-16T16:15:23;3.90;;;1.50;;
30062;SDS011;16889;67.864;24.990;2022-10-16T16:20:09;4.15;;;1.40;;
30062;SDS011;16889;67.864;24.990;2022-10-16T16:24:56;2.92;;;1.30;;
30062;SDS011;16889;67.864;24.990;2022-10-16T16:29:42;2.45;;;1.25;;
30062;SDS011;16889;67.864;24.990;2022-10-16T16:34:28;1.90;;;1.40;;
30062;SDS011;16889;67.864;24.990;2022-10-16T16:39:14;2.90;;;1.52;;
30062;SDS011;16889;67.864;24.990;2022-10-16T16:44:01;2.00;;;1.40;;
30062;SDS011;16889;67.864;24.990;2022-10-16T16:48:49;1.40;;;1.10;;
30062;SDS011;16889;67.864;24.990;2022-10-16T16:53:40;3.17;;;1.30;;
30062;SDS011;16889;67.864;24.990;2022-10-16T16:58:30;3.58;;;1.10;;
30062;SDS011;16889;67.864;24.990;2022-10-16T17:03:16;2.17;;;1.35;;
30062;SDS011;16889;67.864;24.990;2022-10-16T17:08:06;7.18;;;1.65;;
30062;SDS011;16889;67.864;24.990;2022-10-16T17:12:53;7.55;;;1.70;;
30062;SDS011;16889;67.864;24.990;2022-10-16T17:17:39;5.10;;;2.20;;
30062;SDS011;16889;67.864;24.990;2022-10-16T17:22:25;5.00;;;2.03;;
30062;SDS011;16889;67.864;24.990;2022-10-16T17:27:11;4.57;;;2.05;;
30062;SDS011;16889;67.864;24.990;2022-10-16T17:31:57;5.05;;;2.25;;
30062;SDS011;16889;67.864;24.990;2022-10-16T17:36:43;5.93;;;2.20;;
30062;SDS011;16889;67.864;24.990;2022-10-16T17:41:31;5.43;;;2.35;;
30062;SDS011;16889;67.864;24.990;2022-10-16T17:46:19;7.28;;;2.80;;
30062;SDS011;16889;67.864;24.990;2022-10-16T17:51:07;5.95;;;2.03;;
30062;SDS011;16889;67.864;24.990;2022-10-16T17:55:54;14.52;;;2.40;;
30062;SDS011;16889;67.864;24.990;2022-10-16T18:00:43;10.50;;;2.50;;
30062;SDS011;16889;67.864;24.990;2022-10-16T18:05:29;6.47;;;2.00;;
30062;SDS011;16889;67.864;24.990;2022-10-16T18:10:15;4.20;;;2.05;;
30062;SDS011;16889;67.864;24.990;2022-10-16T18:15:01;3.50;;;2.10;;
30062;SDS011;16889;67.864;24.990;2022-10-16T18:19:47;4.95;;;2.50;;
30062;SDS011;16889;67.864;24.990;2022-10-16T18:24:33;13.20;;;2.80;;
30062;SDS011;16889;67.864;24.990;2022-10-16T18:29:21;3.95;;;2.33;;
30062;SDS011;16889;67.864;24.990;2022-10-16T18:34:08;8.20;;;2.63;;
30062;SDS011;16889;67.864;24.990;2022-10-16T18:38:54;5.22;;;2.45;;
30062;SDS011;16889;67.864;24.990;2022-10-16T18:43:41;4.57;;;2.50;;
30062;SDS011;16889;67.864;24.990;2022-10-16T18:48:28;3.83;;;2.30;;
30062;SDS011;16889;67.864;24.990;2022-10-16T18:53:14;5.60;;;2.57;;
30062;SDS011;16889;67.864;24.990;2022-10-16T18:58:00;5.18;;;2.10;;
30062;SDS011;16889;67.864;24.990;2022-10-16T19:02:46;3.45;;;1.88;;
30062;SDS011;16889;67.864;24.990;2022-10-16T19:07:32;4.85;;;2.05;;
30062;SDS011;16889;67.864;24.990;2022-10-16T19:12:18;3.20;;;2.25;;
30062;SDS011;16889;67.864;24.990;2022-10-16T19:17:04;4.07;;;2.50;;
30062;SDS011;16889;67.864;24.990;2022-10-16T19:21:50;2.90;;;2.20;;
30062;SDS011;16889;67.864;24.990;2022-10-16T19:26:42;2.90;;;2.28;;
30062;SDS011;16889;67.864;24.990;2022-10-16T19:31:28;4.50;;;2.15;;
30062;SDS011;16889;67.864;24.990;2022-10-16T19:36:16;3.77;;;2.00;;
30062;SDS011;16889;67.864;24.990;2022-10-16T19:41:10;3.60;;;1.80;;
30062;SDS011;16889;67.864;24.990;2022-10-16T19:46:01;6.18;;;2.00;;
30062;SDS011;16889;67.864;24.990;2022-10-16T19:50:51;3.85;;;1.85;;
30062;SDS011;16889;67.864;24.990;2022-10-16T19:55:37;2.30;;;1.95;;
30062;SDS011;16889;67.864;24.990;2022-10-16T20:00:23;3.55;;;1.98;;
30062;SDS011;16889;67.864;24.990;2022-10-16T20:05:09;3.05;;;2.08;;
30062;SDS011;16889;67.864;24.990;2022-10-16T20:09:56;3.83;;;2.03;;
30062;SDS011;16889;67.864;24.990;2022-10-16T20:14:42;2.00;;;1.60;;
30062;SDS011;16889;67.864;24.990;2022-10-16T20:19:28;1.98;;;1.52;;
30062;SDS011;16889;67.864;24.990;2022-10-16T20:24:14;2.80;;;1.77;;
30062;SDS011;16889;67.864;24.990;2022-10-16T20:29:00;2.42;;;1.80;;
30062;SDS011;16889;67.864;24.990;2022-10-16T20:33:48;2.23;;;1.40;;
30062;SDS011;16889;67.864;24.990;2022-10-16T20:38:35;3.22;;;1.67;;
30062;SDS011;16889;67.864;24.990;2022-10-16T20:43:22;2.35;;;1.63;;
30062;SDS011;16889;67.864;24.990;2022-10-16T20:48:08;5.28;;;2.30;;
30062;SDS011;16889;67.864;24.990;2022-10-16T20:52:58;2.40;;;1.73;;
30062;SDS011;16889;67.864;24.990;2022-10-16T20:57:44;5.55;;;2.38;;
30062;SDS011;16889;67.864;24.990;2022-10-16T21:02:30;2.03;;;1.80;;
30062;SDS011;16889;67.864;24.990;2022-10-16T21:07:16;2.42;;;1.90;;
30062;SDS011;16889;67.864;24.990;2022-10-16T21:12:02;2.45;;;1.80;;
30062;SDS011;16889;67.864;24.990;2022-10-16T21:16:48;2.80;;;1.90;;
30062;SDS011;16889;67.864;24.990;2022-10-16T21:21:35;4.20;;;2.13;;
30062;SDS011;16889;67.864;24.990;2022-10-16T21:26:22;2.78;;;1.90;;
30062;SDS011;16889;67.864;24.990;2022-10-16T21:31:16;4.38;;;2.35;;
30062;SDS011;16889;67.864;24.990;2022-10-16T21:36:12;3.00;;;2.40;;
30062;SDS011;16889;67.864;24.990;2022-10-16T21:41:00;6.82;;;1.88;;
30062;SDS011;16889;67.864;24.990;2022-10-16T21:45:46;2.97;;;1.90;;
30062;SDS011;16889;67.864;24.990;2022-10-16T21:50:32;3.70;;;1.90;;
30062;SDS011;16889;67.864;24.990;2022-10-16T21:55:18;3.20;;;1.80;;
30062;SDS011;16889;67.864;24.990;2022-10-16T22:00:04;2.13;;;1.80;;
30062;SDS011;16889;67.864;24.990;2022-10-16T22:04:51;4.50;;;2.08;;
30062;SDS011;16889;67.864;24.990;2022-10-16T22:09:37;2.28;;;1.55;;
30062;SDS011;16889;67.864;24.990;2022-10-16T22:14:23;3.80;;;2.33;;
30062;SDS011;16889;67.864;24.990;2022-10-16T22:19:09;3.60;;;1.95;;
30062;SDS011;16889;67.864;24.990;2022-10-16T22:23:57;4.50;;;1.50;;
30062;SDS011;16889;67.864;24.990;2022-10-16T22:28:43;2.63;;;2.03;;
30062;SDS011;16889;67.864;24.990;2022-10-16T22:33:29;3.72;;;2.00;;
30062;SDS011;16889;67.864;24.990;2022-10-16T22:38:15;3.90;;;1.73;;
30062;SDS011;16889;67.864;24.990;2022-10-16T22:43:01;3.60;;;2.22;;
30062;SDS011;16889;67.864;24.990;2022-10-16T22:47:48;3.65;;;2.25;;
30062;SDS011;16889;67.864;24.990;2022-10-16T22:52:34;3.35;;;2.10;;
30062;SDS011;16889;67.864;24.990;2022-10-16T22:57:21;5.87;;;2.07;;
30062;SDS011;16889;67.864;24.990;2022-10-16T23:02:07;6.72;;;2.28;;
30062;SDS011;16889;67.864;24.990;2022-10-16T23:06:53;5.63;;;1.95;;
30062;SDS011;16889;67.864;24.990;2022-10-16T23:11:39;4.68;;;2.22;;
30062;SDS011;16889;67.864;24.990;2022-10-16T23:16:25;2.63;;;1.83;;
30062;SDS011;16889;67.864;24.990;2022-10-16T23:21:15;5.40;;;1.30;;
30062;SDS011;16889;67.864;24.990;2022-10-16T23:26:07;1.90;;;1.30;;
30062;SDS011;16889;67.864;24.990;2022-10-16T23:31:02;3.28;;;1.38;;
30062;SDS011;16889;67.864;24.990;2022-10-16T23:35:51;6.45;;;1.20;;
30062;SDS011;16889;67.864;24.990;2022-10-16T23:40:37;1.38;;;1.10;;
30062;SDS011;16889;67.864;24.990;2022-10-16T23:45:23;1.77;;;1.17;;
30062;SDS011;16889;67.864;24.990;2022-10-16T23:50:09;1.88;;;1.30;;
30062;SDS011;16889;67.864;24.990;2022-10-16T23:54:55;2.97;;;1.00;;
30062;SDS011;16889;67.864;24.990;2022-10-16T23:59:41;1.38;;;0.75;;
